Latest Coastal Weather Observations for Darwin Harbour

IDD60701

Issued at 10:51 pm CST Wednesday 29 July 2015 (issued every 10 minutes, with the page automatically refreshed every 10 minutes)

About coastal observations | Map of coastal stations | Coastal observations for NT | Marine services | Other Formats
Station Details ID: 014072 Name: DARWIN NTC AWS Lat: -12.47 Lon: 130.85 Height: 0.0 m
Data from the previous 72 hours. | See also: Recent months for locations in Northern Territory
Date/Time
CST
Temp

°C
Wind Pressure Rain
since 9am
mm
Weather Cloud Vis
km
Sea
Height
m
Swell
Dir
 
Speed
knots
Gust
knots
hPa Trend Height
m
Period
s
Dir
29/10:30pm 24.8 WSW 3 5 1016.0 - - - - - - - - -
29/10:00pm 24.8 WSW 4 5 1016.0 - - - - - - - - -
29/09:30pm 24.8 WSW 4 5 1015.9 - - - - - - - - -
29/09:00pm 25.0 WSW 5 7 1015.6 - - - - - - - - -
29/08:30pm 25.1 WSW 6 7 1015.3 - - - - - - - - -
29/08:00pm 25.3 W 4 6 1015.1 - - - - - - - - -
29/07:30pm 25.4 W 5 7 1014.6 - - - - - - - - -
29/07:00pm 25.8 W 5 9 1014.2 - - - - - - - - -
29/06:30pm 26.3 WNW 4 8 1013.8 - - - - - - - - -
29/06:00pm 26.6 NW 4 9 1013.7 - - - - - - - - -
29/05:30pm 27.6 NW 4 8 1013.2 - - - - - - - - -
29/05:00pm 27.4 WNW 5 10 1013.1 - - - - - - - - -
29/04:30pm 27.9 NNW 5 9 1012.9 - - - - - - - - -
29/04:00pm 27.5 WNW 7 11 1013.2 - - - - - - - - -
29/03:30pm 29.8 ESE 9 13 1013.2 - - - - - - - - -
29/03:00pm 30.0 ESE 4 9 1013.4 - - - - - - - - -
29/02:30pm 29.2 ESE 5 12 1013.7 - - - - - - - - -
29/02:00pm 29.0 E 16 20 1014.1 - - - - - - - - -
29/01:30pm 28.4 E 11 15 1014.6 - - - - - - - - -
29/01:00pm 27.9 E 14 19 1015.1 - - - - - - - - -
29/12:30pm 27.5 E 15 19 1015.6 - - - - - - - - -
29/12:00pm 27.1 ESE 15 19 1016.2 - - - - - - - - -
29/11:30am 26.4 ESE 17 20 1016.7 - - - - - - - - -
29/11:00am 25.8 ESE 18 21 1017.1 - - - - - - - - -
29/10:30am 25.1 ESE 19 22 1017.2 - - - - - - - - -
29/10:00am 24.6 ESE 17 20 1017.5 - - - - - - - - -
29/09:30am 23.7 ESE 10 14 1017.7 - - - - - - - - -
29/09:00am 23.3 ESE 7 14 1017.6 - - - - - - - - -
29/08:30am 22.8 ESE 8 14 1017.2 - - - - - - - - -
29/08:00am 22.5 ESE 8 13 1016.9 - - - - - - - - -
29/07:30am 22.3 ESE 8 12 1016.7 - - - - - - - - -
29/07:00am 22.6 ESE 13 16 1016.3 - - - - - - - - -
29/06:30am 22.9 ESE 13 17 1016.1 - - - - - - - - -
29/06:00am 23.4 ESE 11 14 1016.0 - - - - - - - - -
29/05:30am 23.4 ESE 9 11 1015.8 - - - - - - - - -
29/05:00am 23.6 ESE 7 11 1015.6 - - - - - - - - -
29/04:30am 23.6 E 3 7 1015.4 - - - - - - - - -
29/04:00am 24.1 E 5 11 1015.3 - - - - - - - - -
29/03:30am 24.4 ESE 7 11 1015.3 - - - - - - - - -
29/03:00am 24.5 E 6 10 1015.5 - - - - - - - - -
29/02:30am 24.7 ESE 5 9 1015.8 - - - - - - - - -
29/02:00am 24.6 ESE 6 9 1016.0 - - - - - - - - -
29/01:30am 24.6 ESE 7 8 1016.1 - - - - - - - - -
29/01:00am 24.7 ESE 3 6 1016.3 - - - - - - - - -
29/12:30am 25.1 ESE 7 9 1016.3 - - - - - - - - -
29/12:00am 25.3 ESE 5 9 1016.4 - - - - - - - - -
 
Date/Time
CST
Temp

°C
Wind Pressure Rain
since 9am
mm
Weather Cloud Vis
km
Sea
Height
m
Swell
Dir
 
Speed
knots
Gust
knots
hPa Trend Height
m
Period
s
Dir
28/11:30pm 25.5 WSW 1 5 1016.4 - - - - - - - - -
28/11:00pm 25.3 WSW 2 4 1016.4 - - - - - - - - -
28/10:30pm 24.6 WSW 4 6 1016.7 - - - - - - - - -
28/10:00pm 24.9 WSW 4 5 1016.6 - - - - - - - - -
28/09:30pm 25.2 WSW 2 3 1016.5 - - - - - - - - -
28/09:00pm 25.0 W 3 3 1016.5 - - - - - - - - -
28/08:30pm 25.3 W 3 4 1016.2 - - - - - - - - -
28/08:00pm 25.5 W 3 5 1015.9 - - - - - - - - -
28/07:30pm 25.8 W 4 5 1015.4 - - - - - - - - -
28/07:00pm 26.2 WNW 3 6 1015.0 - - - - - - - - -
28/06:30pm 26.5 WNW 3 8 1014.7 - - - - - - - - -
28/06:00pm 29.5 E 9 11 1014.3 - - - - - - - - -
28/05:30pm 29.8 E 10 13 1014.0 - - - - - - - - -
28/05:00pm 29.9 E 12 16 1013.8 - - - - - - - - -
28/04:30pm 30.0 ESE 9 11 1013.7 - - - - - - - - -
28/04:00pm 29.3 ESE 10 12 1013.7 - - - - - - - - -
28/03:30pm 29.3 ESE 12 16 1013.9 - - - - - - - - -
28/03:00pm 29.1 E 15 18 1014.2 - - - - - - - - -
28/02:30pm 28.9 E 15 18 1014.6 - - - - - - - - -
28/02:00pm 28.4 ESE 14 16 1015.0 - - - - - - - - -
28/01:30pm 28.3 E 16 19 1015.4 - - - - - - - - -
28/01:00pm 27.7 ESE 16 19 1016.0 - - - - - - - - -
28/12:30pm 27.9 ESE 11 18 1016.5 - - - - - - - - -
28/12:00pm 27.0 ESE 11 17 1017.0 - - - - - - - - -
28/11:30am 26.4 ESE 13 18 1017.4 - - - - - - - - -
28/11:00am 25.7 ESE 17 20 1017.6 - - - - - - - - -
28/10:30am 25.2 ESE 20 24 1017.9 - - - - - - - - -
28/10:00am 25.2 ESE 15 21 1017.8 - - - - - - - - -
28/09:30am 24.5 ESE 9 14 1017.8 - - - - - - - - -
28/09:00am 24.2 ESE 5 11 1017.8 - - - - - - - - -
28/08:30am 23.3 ESE 8 14 1017.6 - - - - - - - - -
28/08:00am 22.9 ESE 11 16 1017.4 - - - - - - - - -
28/07:30am 23.0 ESE 9 14 1017.2 - - - - - - - - -
28/07:00am 23.2 E 5 11 1017.0 - - - - - - - - -
28/06:30am 23.6 ESE 9 14 1016.7 - - - - - - - - -
28/06:00am 23.8 ESE 8 12 1016.4 - - - - - - - - -
28/05:30am 24.0 ESE 10 14 1016.3 - - - - - - - - -
28/05:00am 24.1 ESE 10 14 1016.2 - - - - - - - - -
28/04:30am 24.1 ESE 7 11 1016.0 - - - - - - - - -
28/04:00am 24.1 ESE 6 10 1016.0 - - - - - - - - -
28/03:30am 24.6 E 5 8 1015.8 - - - - - - - - -
28/03:00am 24.6 ESE 6 7 1015.8 - - - - - - - - -
28/02:30am 24.7 NNW 1 4 1016.0 - - - - - - - - -
28/02:00am 24.5 WSW 2 3 1016.1 - - - - - - - - -
28/01:30am 24.6 WSW 3 4 1016.1 - - - - - - - - -
28/01:00am 24.7 WSW 4 5 1016.1 - - - - - - - - -
28/12:30am 24.7 WSW 3 4 1016.2 - - - - - - - - -
28/12:00am 25.0 WSW 3 5 1016.3 - - - - - - - - -
 
Date/Time
CST
Temp

°C
Wind Pressure Rain
since 9am
mm
Weather Cloud Vis
km
Sea
Height
m
Swell
Dir
 
Speed
knots
Gust
knots
hPa Trend Height
m
Period
s
Dir
27/11:30pm 25.2 NW 1 3 1016.3 - - - - - - - - -
27/11:00pm 25.6 WNW 1 4 1016.1 - - - - - - - - -
27/10:30pm 26.3 CALM 0 1 1016.0 - - - - - - - - -
27/10:00pm 26.8 CALM 0 2 1015.8 - - - - - - - - -
27/09:30pm 27.0 ESE 2 3 1015.7 - - - - - - - - -
27/09:00pm 26.7 ENE 2 3 1015.4 - - - - - - - - -
27/08:30pm 27.1 ENE 3 5 1015.1 - - - - - - - - -
27/08:00pm 27.5 NE 3 7 1014.7 - - - - - - - - -
27/07:30pm 27.8 ENE 4 9 1014.4 - - - - - - - - -
27/07:00pm 28.1 NE 5 9 1013.9 - - - - - - - - -
27/06:30pm 28.5 NE 5 11 1013.6 - - - - - - - - -
27/06:00pm 29.2 NE 6 13 1013.1 - - - - - - - - -
27/05:30pm 29.8 NNE 6 12 1012.8 - - - - - - - - -
27/05:00pm 30.2 NNE 6 12 1012.7 - - - - - - - - -
27/04:30pm 31.1 N 5 13 1012.6 - - - - - - - - -
27/04:00pm 29.9 NNW 5 9 1012.6 - - - - - - - - -
27/03:30pm 28.8 NW 6 13 1012.8 - - - - - - - - -
27/03:00pm 27.8 NW 6 13 1013.4 - - - - - - - - -
27/02:30pm 30.2 NNE 5 11 1013.6 - - - - - - - - -
27/02:00pm 31.3 E 15 21 1013.6 - - - - - - - - -
27/01:30pm 31.0 E 14 19 1014.0 - - - - - - - - -
27/01:00pm 31.3 E 16 23 1014.4 - - - - - - - - -
27/12:30pm 30.1 E 15 20 1015.1 - - - - - - - - -
27/12:00pm 29.8 E 14 20 1015.9 - - - - - - - - -
27/11:30am 27.6 SW 2 5 1016.8 - - - - - - - - -
27/11:00am 26.3 SSW 4 6 1017.0 - - - - - - - - -
27/10:30am 26.0 S 4 6 1017.4 - - - - - - - - -
27/10:00am 25.4 S 7 8 1017.5 - - - - - - - - -
27/09:30am 25.0 S 4 7 1017.6 - - - - - - - - -
27/09:00am 24.9 S 4 5 1017.6 - - - - - - - - -
27/08:30am 24.9 ESE 3 5 1017.4 - - - - - - - - -
27/08:00am 24.8 W 1 3 1016.9 - - - - - - - - -
27/07:30am 24.7 SW 2 4 1016.3 - - - - - - - - -
27/07:00am 24.7 SSW 4 5 1016.2 - - - - - - - - -
27/06:30am 24.9 SW 3 4 1016.0 - - - - - - - - -
27/06:00am 24.8 SW 3 4 1015.8 - - - - - - - - -
27/05:30am 24.8 SW 3 4 1015.7 - - - - - - - - -
27/05:00am 24.7 WSW 3 4 1015.5 - - - - - - - - -
27/04:30am 24.9 SW 3 5 1015.7 - - - - - - - - -
27/04:00am 24.9 CALM 0 2 1015.9 - - - - - - - - -
27/03:30am 24.8 CALM 0 2 1016.1 - - - - - - - - -
27/03:00am 24.8 SW 2 3 1016.1 - - - - - - - - -
27/02:30am 24.8 WSW 2 3 1016.4 - - - - - - - - -
27/02:00am 24.8 WSW 3 4 1016.3 - - - - - - - - -
27/01:30am 24.8 WSW 1 2 1016.7 - - - - - - - - -
27/01:00am 24.9 CALM 0 2 1016.8 - - - - - - - - -
27/12:30am 24.9 WNW 1 3 1017.0 - - - - - - - - -
27/12:00am 24.9 SW 2 5 1016.8 - - - - - - - - -
 
Date/Time
CST
Temp

°C
Wind Pressure Rain
since 9am
mm
Weather Cloud Vis
km
Sea
Height
m
Swell
Dir
 
Speed
knots
Gust
knots
hPa Trend Height
m
Period
s
Dir
26/11:30pm 25.0 SW 7 10 1016.8 - - - - - - - - -
26/11:00pm 25.2 WSW 4 6 1016.8 - - - - - - - - -

Other Formats:

Comma delimited format used in spreadsheet applications
http://www.bom.gov.au/fwo/IDD60701/IDD60701.95122.axf

JavaScript Object Notation format (JSON) in row-major order
http://www.bom.gov.au/fwo/IDD60701/IDD60701.95122.json